sensor_id;sensor_type;location;lat;lon;timestamp;P1;durP1;ratioP1;P2;durP2;ratioP2
72771;SDS011;60894;42.544;1.516;2024-02-26T00:02:09;12.20;;;6.00;;
72771;SDS011;60894;42.544;1.516;2024-02-26T00:04:38;13.02;;;6.03;;
72771;SDS011;60894;42.544;1.516;2024-02-26T00:07:04;16.55;;;8.50;;
72771;SDS011;60894;42.544;1.516;2024-02-26T00:09:31;13.35;;;6.38;;
72771;SDS011;60894;42.544;1.516;2024-02-26T00:12:01;14.33;;;6.30;;
72771;SDS011;60894;42.544;1.516;2024-02-26T00:14:29;13.48;;;6.82;;
72771;SDS011;60894;42.544;1.516;2024-02-26T00:16:58;15.13;;;6.80;;
72771;SDS011;60894;42.544;1.516;2024-02-26T00:19:26;14.55;;;7.00;;
72771;SDS011;60894;42.544;1.516;2024-02-26T00:21:54;12.75;;;6.28;;
72771;SDS011;60894;42.544;1.516;2024-02-26T00:24:21;14.73;;;7.07;;
72771;SDS011;60894;42.544;1.516;2024-02-26T00:26:50;12.57;;;6.03;;
72771;SDS011;60894;42.544;1.516;2024-02-26T00:29:19;14.32;;;6.95;;
72771;SDS011;60894;42.544;1.516;2024-02-26T00:31:47;14.98;;;7.00;;
72771;SDS011;60894;42.544;1.516;2024-02-26T00:34:14;10.60;;;4.65;;
72771;SDS011;60894;42.544;1.516;2024-02-26T00:36:41;9.33;;;4.07;;
72771;SDS011;60894;42.544;1.516;2024-02-26T00:39:09;10.43;;;5.10;;
72771;SDS011;60894;42.544;1.516;2024-02-26T00:41:38;10.02;;;4.70;;
72771;SDS011;60894;42.544;1.516;2024-02-26T00:44:06;13.27;;;5.85;;
72771;SDS011;60894;42.544;1.516;2024-02-26T00:46:33;12.45;;;5.97;;
72771;SDS011;60894;42.544;1.516;2024-02-26T00:49:00;8.00;;;3.60;;
72771;SDS011;60894;42.544;1.516;2024-02-26T00:51:28;9.73;;;4.03;;
72771;SDS011;60894;42.544;1.516;2024-02-26T00:53:55;8.52;;;3.58;;
72771;SDS011;60894;42.544;1.516;2024-02-26T00:56:23;7.57;;;3.42;;
72771;SDS011;60894;42.544;1.516;2024-02-26T00:58:50;8.77;;;3.70;;
72771;SDS011;60894;42.544;1.516;2024-02-26T01:01:17;10.10;;;4.00;;
72771;SDS011;60894;42.544;1.516;2024-02-26T01:03:45;11.90;;;5.65;;
72771;SDS011;60894;42.544;1.516;2024-02-26T01:06:12;10.90;;;5.57;;
72771;SDS011;60894;42.544;1.516;2024-02-26T01:08:39;11.18;;;5.20;;
72771;SDS011;60894;42.544;1.516;2024-02-26T01:11:06;10.93;;;5.43;;
72771;SDS011;60894;42.544;1.516;2024-02-26T01:13:34;10.70;;;5.37;;
72771;SDS011;60894;42.544;1.516;2024-02-26T01:16:01;12.50;;;6.40;;
72771;SDS011;60894;42.544;1.516;2024-02-26T01:18:28;11.73;;;5.45;;
72771;SDS011;60894;42.544;1.516;2024-02-26T01:20:55;11.88;;;5.30;;
72771;SDS011;60894;42.544;1.516;2024-02-26T01:23:22;11.73;;;4.80;;
72771;SDS011;60894;42.544;1.516;2024-02-26T01:25:49;10.63;;;4.70;;
72771;SDS011;60894;42.544;1.516;2024-02-26T01:28:17;10.35;;;4.30;;
72771;SDS011;60894;42.544;1.516;2024-02-26T01:30:45;9.02;;;4.25;;
72771;SDS011;60894;42.544;1.516;2024-02-26T01:33:12;9.70;;;4.10;;
72771;SDS011;60894;42.544;1.516;2024-02-26T01:35:39;7.93;;;3.58;;
72771;SDS011;60894;42.544;1.516;2024-02-26T01:38:06;8.17;;;3.70;;
72771;SDS011;60894;42.544;1.516;2024-02-26T01:40:33;7.78;;;3.20;;
72771;SDS011;60894;42.544;1.516;2024-02-26T01:43:00;9.45;;;3.95;;
72771;SDS011;60894;42.544;1.516;2024-02-26T01:45:26;7.78;;;3.38;;
72771;SDS011;60894;42.544;1.516;2024-02-26T01:47:55;7.40;;;3.20;;
72771;SDS011;60894;42.544;1.516;2024-02-26T01:50:23;9.00;;;4.17;;
72771;SDS011;60894;42.544;1.516;2024-02-26T01:52:51;9.32;;;4.50;;
72771;SDS011;60894;42.544;1.516;2024-02-26T01:55:19;8.48;;;3.80;;
72771;SDS011;60894;42.544;1.516;2024-02-26T01:57:47;8.50;;;3.42;;
72771;SDS011;60894;42.544;1.516;2024-02-26T02:00:17;8.13;;;3.25;;
72771;SDS011;60894;42.544;1.516;2024-02-26T02:02:45;7.43;;;3.20;;
72771;SDS011;60894;42.544;1.516;2024-02-26T02:05:15;8.52;;;3.50;;
72771;SDS011;60894;42.544;1.516;2024-02-26T02:07:43;7.63;;;2.70;;
72771;SDS011;60894;42.544;1.516;2024-02-26T02:10:10;6.88;;;2.78;;
72771;SDS011;60894;42.544;1.516;2024-02-26T02:12:37;7.72;;;2.78;;
72771;SDS011;60894;42.544;1.516;2024-02-26T02:15:07;5.60;;;2.57;;
72771;SDS011;60894;42.544;1.516;2024-02-26T02:17:34;7.25;;;2.45;;
72771;SDS011;60894;42.544;1.516;2024-02-26T02:20:01;6.60;;;2.50;;
72771;SDS011;60894;42.544;1.516;2024-02-26T02:22:33;6.13;;;2.40;;
72771;SDS011;60894;42.544;1.516;2024-02-26T02:25:00;6.43;;;2.28;;
72771;SDS011;60894;42.544;1.516;2024-02-26T02:27:27;5.27;;;2.10;;
72771;SDS011;60894;42.544;1.516;2024-02-26T02:29:55;6.55;;;2.30;;
72771;SDS011;60894;42.544;1.516;2024-02-26T02:32:23;6.05;;;2.10;;
72771;SDS011;60894;42.544;1.516;2024-02-26T02:34:51;3.75;;;1.60;;
72771;SDS011;60894;42.544;1.516;2024-02-26T02:37:19;5.20;;;2.00;;
72771;SDS011;60894;42.544;1.516;2024-02-26T02:39:47;4.23;;;1.50;;
72771;SDS011;60894;42.544;1.516;2024-02-26T02:42:14;6.22;;;1.95;;
72771;SDS011;60894;42.544;1.516;2024-02-26T02:44:41;4.50;;;1.85;;
72771;SDS011;60894;42.544;1.516;2024-02-26T02:47:10;3.22;;;1.27;;
72771;SDS011;60894;42.544;1.516;2024-02-26T02:49:37;3.35;;;1.10;;
72771;SDS011;60894;42.544;1.516;2024-02-26T02:52:04;2.37;;;0.90;;
72771;SDS011;60894;42.544;1.516;2024-02-26T02:54:31;2.35;;;0.80;;
72771;SDS011;60894;42.544;1.516;2024-02-26T02:56:59;1.52;;;0.70;;
72771;SDS011;60894;42.544;1.516;2024-02-26T02:59:26;1.83;;;1.00;;
72771;SDS011;60894;42.544;1.516;2024-02-26T03:01:53;6.22;;;1.98;;
72771;SDS011;60894;42.544;1.516;2024-02-26T03:04:20;6.47;;;2.70;;
72771;SDS011;60894;42.544;1.516;2024-02-26T03:06:47;5.97;;;2.25;;
72771;SDS011;60894;42.544;1.516;2024-02-26T03:09:14;4.88;;;2.00;;
72771;SDS011;60894;42.544;1.516;2024-02-26T03:11:41;4.88;;;1.85;;
72771;SDS011;60894;42.544;1.516;2024-02-26T03:14:09;6.00;;;2.20;;
72771;SDS011;60894;42.544;1.516;2024-02-26T03:16:36;5.10;;;2.20;;
72771;SDS011;60894;42.544;1.516;2024-02-26T03:19:03;5.30;;;2.00;;
72771;SDS011;60894;42.544;1.516;2024-02-26T03:21:30;3.92;;;1.33;;
72771;SDS011;60894;42.544;1.516;2024-02-26T03:23:57;4.07;;;1.48;;
72771;SDS011;60894;42.544;1.516;2024-02-26T03:26:24;2.78;;;1.27;;
72771;SDS011;60894;42.544;1.516;2024-02-26T03:28:51;2.70;;;1.13;;
72771;SDS011;60894;42.544;1.516;2024-02-26T03:31:19;3.35;;;1.20;;
72771;SDS011;60894;42.544;1.516;2024-02-26T03:33:46;4.38;;;1.30;;
72771;SDS011;60894;42.544;1.516;2024-02-26T03:36:13;3.33;;;1.30;;
72771;SDS011;60894;42.544;1.516;2024-02-26T03:38:40;2.58;;;1.13;;
72771;SDS011;60894;42.544;1.516;2024-02-26T03:41:07;2.73;;;1.20;;
72771;SDS011;60894;42.544;1.516;2024-02-26T03:43:34;3.20;;;1.45;;
72771;SDS011;60894;42.544;1.516;2024-02-26T03:46:01;3.50;;;1.20;;
72771;SDS011;60894;42.544;1.516;2024-02-26T03:48:30;3.20;;;1.27;;
72771;SDS011;60894;42.544;1.516;2024-02-26T03:50:57;2.40;;;0.90;;
72771;SDS011;60894;42.544;1.516;2024-02-26T03:53:24;2.13;;;1.00;;
72771;SDS011;60894;42.544;1.516;2024-02-26T03:55:51;2.58;;;1.10;;
72771;SDS011;60894;42.544;1.516;2024-02-26T03:58:18;3.40;;;1.35;;
72771;SDS011;60894;42.544;1.516;2024-02-26T04:00:44;3.53;;;1.40;;
72771;SDS011;60894;42.544;1.516;2024-02-26T04:03:12;1.75;;;0.63;;
72771;SDS011;60894;42.544;1.516;2024-02-26T04:05:41;1.97;;;0.90;;
72771;SDS011;60894;42.544;1.516;2024-02-26T04:08:08;2.17;;;0.90;;
72771;SDS011;60894;42.544;1.516;2024-02-26T04:10:36;2.50;;;1.00;;
72771;SDS011;60894;42.544;1.516;2024-02-26T04:13:04;3.55;;;1.20;;
72771;SDS011;60894;42.544;1.516;2024-02-26T04:15:31;3.28;;;1.00;;
72771;SDS011;60894;42.544;1.516;2024-02-26T04:17:58;2.47;;;1.30;;
72771;SDS011;60894;42.544;1.516;2024-02-26T04:20:25;3.78;;;1.30;;
72771;SDS011;60894;42.544;1.516;2024-02-26T04:22:53;1.75;;;0.63;;
72771;SDS011;60894;42.544;1.516;2024-02-26T04:25:20;2.00;;;0.70;;
72771;SDS011;60894;42.544;1.516;2024-02-26T04:27:47;2.40;;;0.93;;
72771;SDS011;60894;42.544;1.516;2024-02-26T04:30:14;3.13;;;1.13;;
72771;SDS011;60894;42.544;1.516;2024-02-26T04:32:42;3.58;;;1.08;;
72771;SDS011;60894;42.544;1.516;2024-02-26T04:35:09;3.47;;;1.33;;
72771;SDS011;60894;42.544;1.516;2024-02-26T04:37:36;2.17;;;1.10;;
72771;SDS011;60894;42.544;1.516;2024-02-26T04:40:05;2.70;;;1.20;;
72771;SDS011;60894;42.544;1.516;2024-02-26T04:42:33;2.00;;;1.00;;
72771;SDS011;60894;42.544;1.516;2024-02-26T04:45:00;1.92;;;0.80;;
72771;SDS011;60894;42.544;1.516;2024-02-26T04:47:27;1.58;;;0.75;;
72771;SDS011;60894;42.544;1.516;2024-02-26T04:49:54;2.45;;;0.85;;
72771;SDS011;60894;42.544;1.516;2024-02-26T04:52:21;1.75;;;0.80;;
72771;SDS011;60894;42.544;1.516;2024-02-26T04:54:48;2.90;;;1.10;;
72771;SDS011;60894;42.544;1.516;2024-02-26T04:57:17;2.80;;;0.90;;
72771;SDS011;60894;42.544;1.516;2024-02-26T04:59:44;2.15;;;0.80;;
72771;SDS011;60894;42.544;1.516;2024-02-26T05:02:11;2.28;;;1.02;;
72771;SDS011;60894;42.544;1.516;2024-02-26T05:04:38;1.50;;;0.80;;
72771;SDS011;60894;42.544;1.516;2024-02-26T05:07:05;1.27;;;0.70;;
72771;SDS011;60894;42.544;1.516;2024-02-26T05:09:32;2.35;;;0.85;;
72771;SDS011;60894;42.544;1.516;2024-02-26T05:11:59;1.95;;;0.60;;
72771;SDS011;60894;42.544;1.516;2024-02-26T05:14:27;1.08;;;0.60;;
72771;SDS011;60894;42.544;1.516;2024-02-26T05:16:54;2.70;;;0.90;;
72771;SDS011;60894;42.544;1.516;2024-02-26T05:19:21;1.50;;;0.57;;
72771;SDS011;60894;42.544;1.516;2024-02-26T05:21:48;2.70;;;0.90;;
72771;SDS011;60894;42.544;1.516;2024-02-26T05:24:15;1.77;;;0.60;;
72771;SDS011;60894;42.544;1.516;2024-02-26T05:26:42;1.20;;;0.50;;
72771;SDS011;60894;42.544;1.516;2024-02-26T05:29:09;1.67;;;0.57;;
72771;SDS011;60894;42.544;1.516;2024-02-26T05:31:38;1.30;;;0.60;;
72771;SDS011;60894;42.544;1.516;2024-02-26T05:34:05;1.95;;;0.63;;
72771;SDS011;60894;42.544;1.516;2024-02-26T05:36:32;1.25;;;0.50;;
72771;SDS011;60894;42.544;1.516;2024-02-26T05:38:59;0.57;;;0.43;;
72771;SDS011;60894;42.544;1.516;2024-02-26T05:41:26;1.48;;;0.80;;
72771;SDS011;60894;42.544;1.516;2024-02-26T05:43:53;3.27;;;0.80;;
72771;SDS011;60894;42.544;1.516;2024-02-26T05:46:20;2.00;;;0.93;;
72771;SDS011;60894;42.544;1.516;2024-02-26T05:48:50;1.30;;;0.75;;
72771;SDS011;60894;42.544;1.516;2024-02-26T05:51:17;2.58;;;1.13;;
72771;SDS011;60894;42.544;1.516;2024-02-26T05:53:44;2.33;;;1.00;;
72771;SDS011;60894;42.544;1.516;2024-02-26T05:56:12;1.83;;;0.90;;
72771;SDS011;60894;42.544;1.516;2024-02-26T05:58:39;4.63;;;1.65;;
72771;SDS011;60894;42.544;1.516;2024-02-26T06:01:05;3.38;;;1.40;;
72771;SDS011;60894;42.544;1.516;2024-02-26T06:03:32;3.05;;;1.23;;
72771;SDS011;60894;42.544;1.516;2024-02-26T06:06:01;2.60;;;1.30;;
72771;SDS011;60894;42.544;1.516;2024-02-26T06:08:28;2.20;;;1.00;;
72771;SDS011;60894;42.544;1.516;2024-02-26T06:10:54;4.30;;;2.22;;
72771;SDS011;60894;42.544;1.516;2024-02-26T06:13:21;3.03;;;1.60;;
72771;SDS011;60894;42.544;1.516;2024-02-26T06:15:48;3.28;;;1.70;;
72771;SDS011;60894;42.544;1.516;2024-02-26T06:18:15;4.35;;;1.73;;
72771;SDS011;60894;42.544;1.516;2024-02-26T06:20:42;3.93;;;1.87;;
72771;SDS011;60894;42.544;1.516;2024-02-26T06:23:11;3.72;;;1.50;;
72771;SDS011;60894;42.544;1.516;2024-02-26T06:25:38;2.33;;;1.20;;
72771;SDS011;60894;42.544;1.516;2024-02-26T06:28:06;3.83;;;1.15;;
72771;SDS011;60894;42.544;1.516;2024-02-26T06:30:33;1.63;;;0.70;;
72771;SDS011;60894;42.544;1.516;2024-02-26T06:33:01;2.50;;;1.10;;
72771;SDS011;60894;42.544;1.516;2024-02-26T06:35:28;2.40;;;1.00;;
72771;SDS011;60894;42.544;1.516;2024-02-26T06:37:55;3.85;;;1.40;;
72771;SDS011;60894;42.544;1.516;2024-02-26T06:40:23;4.95;;;2.03;;
72771;SDS011;60894;42.544;1.516;2024-02-26T06:42:50;4.93;;;1.60;;
72771;SDS011;60894;42.544;1.516;2024-02-26T06:45:17;2.80;;;1.43;;
72771;SDS011;60894;42.544;1.516;2024-02-26T06:47:44;3.15;;;1.40;;
72771;SDS011;60894;42.544;1.516;2024-02-26T06:50:11;4.75;;;1.70;;
72771;SDS011;60894;42.544;1.516;2024-02-26T06:52:39;2.17;;;0.95;;
72771;SDS011;60894;42.544;1.516;2024-02-26T06:55:06;2.92;;;0.93;;
72771;SDS011;60894;42.544;1.516;2024-02-26T06:57:35;2.87;;;1.30;;
72771;SDS011;60894;42.544;1.516;2024-02-26T07:00:02;3.08;;;1.50;;
72771;SDS011;60894;42.544;1.516;2024-02-26T07:02:30;5.28;;;1.90;;
72771;SDS011;60894;42.544;1.516;2024-02-26T07:04:57;3.60;;;1.92;;
72771;SDS011;60894;42.544;1.516;2024-02-26T07:07:24;4.07;;;1.40;;
72771;SDS011;60894;42.544;1.516;2024-02-26T07:09:51;3.43;;;1.30;;
72771;SDS011;60894;42.544;1.516;2024-02-26T07:12:17;4.22;;;1.60;;
72771;SDS011;60894;42.544;1.516;2024-02-26T07:14:47;5.38;;;2.20;;
72771;SDS011;60894;42.544;1.516;2024-02-26T07:17:15;5.93;;;1.98;;
72771;SDS011;60894;42.544;1.516;2024-02-26T07:19:42;8.23;;;5.63;;
72771;SDS011;60894;42.544;1.516;2024-02-26T07:22:09;5.10;;;2.57;;
72771;SDS011;60894;42.544;1.516;2024-02-26T07:24:36;5.93;;;2.78;;
72771;SDS011;60894;42.544;1.516;2024-02-26T07:27:03;7.80;;;3.25;;
72771;SDS011;60894;42.544;1.516;2024-02-26T07:29:30;8.05;;;3.15;;
72771;SDS011;60894;42.544;1.516;2024-02-26T07:31:58;6.65;;;3.13;;
72771;SDS011;60894;42.544;1.516;2024-02-26T07:34:25;9.77;;;3.37;;
72771;SDS011;60894;42.544;1.516;2024-02-26T07:36:54;6.13;;;2.65;;
72771;SDS011;60894;42.544;1.516;2024-02-26T07:39:21;7.15;;;3.20;;
72771;SDS011;60894;42.544;1.516;2024-02-26T07:41:48;8.50;;;3.30;;
72771;SDS011;60894;42.544;1.516;2024-02-26T07:44:17;6.63;;;2.63;;
72771;SDS011;60894;42.544;1.516;2024-02-26T07:46:44;5.60;;;2.07;;
72771;SDS011;60894;42.544;1.516;2024-02-26T07:49:13;10.05;;;8.20;;
72771;SDS011;60894;42.544;1.516;2024-02-26T07:51:40;12.25;;;10.57;;
72771;SDS011;60894;42.544;1.516;2024-02-26T07:54:07;7.72;;;3.40;;
72771;SDS011;60894;42.544;1.516;2024-02-26T07:56:34;10.20;;;8.60;;
72771;SDS011;60894;42.544;1.516;2024-02-26T07:59:01;6.57;;;3.53;;
72771;SDS011;60894;42.544;1.516;2024-02-26T08:01:27;4.38;;;1.70;;
72771;SDS011;60894;42.544;1.516;2024-02-26T08:03:54;0.88;;;0.50;;
72771;SDS011;60894;42.544;1.516;2024-02-26T08:06:23;1.13;;;0.60;;
72771;SDS011;60894;42.544;1.516;2024-02-26T08:08:50;1.73;;;0.60;;
72771;SDS011;60894;42.544;1.516;2024-02-26T08:11:18;1.67;;;0.70;;
72771;SDS011;60894;42.544;1.516;2024-02-26T08:13:45;1.75;;;0.60;;
72771;SDS011;60894;42.544;1.516;2024-02-26T08:16:11;1.52;;;0.60;;
72771;SDS011;60894;42.544;1.516;2024-02-26T08:18:38;3.33;;;1.00;;
72771;SDS011;60894;42.544;1.516;2024-02-26T08:21:05;4.55;;;1.88;;
72771;SDS011;60894;42.544;1.516;2024-02-26T08:23:35;4.70;;;1.83;;
72771;SDS011;60894;42.544;1.516;2024-02-26T08:26:02;4.15;;;2.28;;
72771;SDS011;60894;42.544;1.516;2024-02-26T08:28:32;10.27;;;7.65;;
72771;SDS011;60894;42.544;1.516;2024-02-26T08:30:59;4.20;;;1.80;;
72771;SDS011;60894;42.544;1.516;2024-02-26T08:33:26;5.90;;;1.83;;
72771;SDS011;60894;42.544;1.516;2024-02-26T08:35:53;3.93;;;1.50;;
72771;SDS011;60894;42.544;1.516;2024-02-26T08:38:20;4.55;;;1.50;;
72771;SDS011;60894;42.544;1.516;2024-02-26T08:40:49;4.32;;;1.60;;
72771;SDS011;60894;42.544;1.516;2024-02-26T08:43:16;6.55;;;2.03;;
72771;SDS011;60894;42.544;1.516;2024-02-26T08:45:44;5.15;;;1.80;;
72771;SDS011;60894;42.544;1.516;2024-02-26T08:48:11;2.63;;;1.17;;
72771;SDS011;60894;42.544;1.516;2024-02-26T08:50:38;4.15;;;1.27;;
72771;SDS011;60894;42.544;1.516;2024-02-26T08:53:05;5.15;;;1.77;;
72771;SDS011;60894;42.544;1.516;2024-02-26T08:55:32;5.80;;;2.30;;
72771;SDS011;60894;42.544;1.516;2024-02-26T08:58:01;3.67;;;1.40;;
72771;SDS011;60894;42.544;1.516;2024-02-26T09:00:28;2.13;;;0.80;;
72771;SDS011;60894;42.544;1.516;2024-02-26T09:02:54;1.17;;;0.70;;
72771;SDS011;60894;42.544;1.516;2024-02-26T09:05:21;2.15;;;0.93;;
72771;SDS011;60894;42.544;1.516;2024-02-26T09:07:48;1.27;;;0.70;;
72771;SDS011;60894;42.544;1.516;2024-02-26T09:10:17;1.58;;;0.95;;
72771;SDS011;60894;42.544;1.516;2024-02-26T09:12:44;3.33;;;1.37;;
72771;SDS011;60894;42.544;1.516;2024-02-26T09:15:12;2.42;;;1.00;;
72771;SDS011;60894;42.544;1.516;2024-02-26T09:17:39;3.25;;;1.23;;
72771;SDS011;60894;42.544;1.516;2024-02-26T09:20:06;3.28;;;1.15;;
72771;SDS011;60894;42.544;1.516;2024-02-26T09:22:34;4.00;;;1.35;;
72771;SDS011;60894;42.544;1.516;2024-02-26T09:25:03;2.00;;;1.07;;
72771;SDS011;60894;42.544;1.516;2024-02-26T09:27:31;5.63;;;3.88;;
72771;SDS011;60894;42.544;1.516;2024-02-26T09:29:58;4.68;;;2.63;;
72771;SDS011;60894;42.544;1.516;2024-02-26T09:32:26;9.10;;;3.85;;
72771;SDS011;60894;42.544;1.516;2024-02-26T09:34:53;6.82;;;2.45;;
72771;SDS011;60894;42.544;1.516;2024-02-26T09:37:20;3.47;;;1.80;;
72771;SDS011;60894;42.544;1.516;2024-02-26T09:39:47;3.47;;;1.63;;
72771;SDS011;60894;42.544;1.516;2024-02-26T09:42:14;5.45;;;1.95;;
72771;SDS011;60894;42.544;1.516;2024-02-26T09:44:44;3.17;;;1.50;;
72771;SDS011;60894;42.544;1.516;2024-02-26T09:47:12;3.72;;;1.55;;
72771;SDS011;60894;42.544;1.516;2024-02-26T09:49:43;5.43;;;2.50;;
72771;SDS011;60894;42.544;1.516;2024-02-26T09:52:12;3.58;;;1.40;;
72771;SDS011;60894;42.544;1.516;2024-02-26T09:54:41;2.40;;;1.20;;
72771;SDS011;60894;42.544;1.516;2024-02-26T09:57:09;2.53;;;1.20;;
72771;SDS011;60894;42.544;1.516;2024-02-26T09:59:41;2.83;;;1.42;;
72771;SDS011;60894;42.544;1.516;2024-02-26T10:02:09;3.00;;;1.40;;
72771;SDS011;60894;42.544;1.516;2024-02-26T10:04:39;2.92;;;1.30;;
72771;SDS011;60894;42.544;1.516;2024-02-26T10:07:09;2.42;;;0.90;;
72771;SDS011;60894;42.544;1.516;2024-02-26T10:09:37;5.05;;;2.10;;
72771;SDS011;60894;42.544;1.516;2024-02-26T10:12:04;1.95;;;1.05;;
72771;SDS011;60894;42.544;1.516;2024-02-26T10:14:33;2.10;;;1.03;;
72771;SDS011;60894;42.544;1.516;2024-02-26T10:17:00;2.25;;;1.10;;
72771;SDS011;60894;42.544;1.516;2024-02-26T10:19:27;3.42;;;1.10;;
72771;SDS011;60894;42.544;1.516;2024-02-26T10:21:59;3.05;;;1.30;;
72771;SDS011;60894;42.544;1.516;2024-02-26T10:24:28;1.55;;;0.80;;
72771;SDS011;60894;42.544;1.516;2024-02-26T10:26:56;1.20;;;0.63;;
72771;SDS011;60894;42.544;1.516;2024-02-26T10:29:23;1.10;;;0.60;;
72771;SDS011;60894;42.544;1.516;2024-02-26T10:31:51;1.35;;;0.60;;
72771;SDS011;60894;42.544;1.516;2024-02-26T10:34:18;1.25;;;0.70;;
72771;SDS011;60894;42.544;1.516;2024-02-26T10:36:46;3.67;;;0.90;;
72771;SDS011;60894;42.544;1.516;2024-02-26T10:39:13;4.00;;;1.00;;
72771;SDS011;60894;42.544;1.516;2024-02-26T10:41:42;4.60;;;0.73;;
72771;SDS011;60894;42.544;1.516;2024-02-26T10:44:10;5.13;;;1.23;;
72771;SDS011;60894;42.544;1.516;2024-02-26T10:46:38;5.82;;;3.53;;
72771;SDS011;60894;42.544;1.516;2024-02-26T10:49:12;4.07;;;2.70;;
72771;SDS011;60894;42.544;1.516;2024-02-26T10:51:42;1.93;;;0.60;;
72771;SDS011;60894;42.544;1.516;2024-02-26T10:54:12;2.33;;;0.50;;
72771;SDS011;60894;42.544;1.516;2024-02-26T10:56:43;0.63;;;0.32;;
72771;SDS011;60894;42.544;1.516;2024-02-26T10:59:13;1.88;;;0.60;;
72771;SDS011;60894;42.544;1.516;2024-02-26T11:01:46;5.53;;;1.13;;
72771;SDS011;60894;42.544;1.516;2024-02-26T11:04:15;1.93;;;0.67;;
72771;SDS011;60894;42.544;1.516;2024-02-26T11:06:43;8.70;;;1.02;;
72771;SDS011;60894;42.544;1.516;2024-02-26T11:09:12;1.40;;;0.38;;
72771;SDS011;60894;42.544;1.516;2024-02-26T11:11:40;1.08;;;0.50;;
72771;SDS011;60894;42.544;1.516;2024-02-26T11:14:09;0.70;;;0.52;;
72771;SDS011;60894;42.544;1.516;2024-02-26T11:16:39;1.23;;;0.40;;
72771;SDS011;60894;42.544;1.516;2024-02-26T11:19:08;6.93;;;0.93;;
72771;SDS011;60894;42.544;1.516;2024-02-26T11:21:36;7.55;;;1.48;;
72771;SDS011;60894;42.544;1.516;2024-02-26T11:24:07;1.90;;;0.60;;
72771;SDS011;60894;42.544;1.516;2024-02-26T11:26:38;3.13;;;0.57;;
72771;SDS011;60894;42.544;1.516;2024-02-26T11:29:12;0.50;;;0.37;;
72771;SDS011;60894;42.544;1.516;2024-02-26T11:31:42;0.88;;;0.40;;
72771;SDS011;60894;42.544;1.516;2024-02-26T11:34:09;3.42;;;0.70;;
72771;SDS011;60894;42.544;1.516;2024-02-26T11:36:38;4.45;;;0.65;;
72771;SDS011;60894;42.544;1.516;2024-02-26T11:39:05;1.50;;;0.57;;
72771;SDS011;60894;42.544;1.516;2024-02-26T11:41:32;0.57;;;0.30;;
72771;SDS011;60894;42.544;1.516;2024-02-26T11:44:00;0.85;;;0.45;;
72771;SDS011;60894;42.544;1.516;2024-02-26T11:46:31;0.85;;;0.32;;
72771;SDS011;60894;42.544;1.516;2024-02-26T11:49:00;1.90;;;0.40;;
72771;SDS011;60894;42.544;1.516;2024-02-26T11:51:28;0.82;;;0.43;;
72771;SDS011;60894;42.544;1.516;2024-02-26T11:53:59;3.37;;;0.90;;
72771;SDS011;60894;42.544;1.516;2024-02-26T11:56:26;2.15;;;0.68;;
72771;SDS011;60894;42.544;1.516;2024-02-26T11:58:58;3.08;;;0.43;;
72771;SDS011;60894;42.544;1.516;2024-02-26T12:01:42;4.53;;;0.63;;
72771;SDS011;60894;42.544;1.516;2024-02-26T12:04:15;2.45;;;0.73;;
72771;SDS011;60894;42.544;1.516;2024-02-26T12:06:50;2.30;;;0.50;;
72771;SDS011;60894;42.544;1.516;2024-02-26T12:09:30;1.98;;;0.90;;
72771;SDS011;60894;42.544;1.516;2024-02-26T12:11:58;1.30;;;0.50;;
72771;SDS011;60894;42.544;1.516;2024-02-26T12:14:26;1.55;;;0.50;;
72771;SDS011;60894;42.544;1.516;2024-02-26T12:16:55;1.85;;;0.80;;
72771;SDS011;60894;42.544;1.516;2024-02-26T12:19:23;0.80;;;0.50;;
72771;SDS011;60894;42.544;1.516;2024-02-26T12:21:51;1.88;;;0.82;;
72771;SDS011;60894;42.544;1.516;2024-02-26T12:24:20;1.08;;;0.50;;
72771;SDS011;60894;42.544;1.516;2024-02-26T12:26:47;0.88;;;0.30;;
72771;SDS011;60894;42.544;1.516;2024-02-26T12:29:14;4.68;;;3.97;;
72771;SDS011;60894;42.544;1.516;2024-02-26T12:31:41;2.07;;;0.73;;
72771;SDS011;60894;42.544;1.516;2024-02-26T12:34:10;1.27;;;0.50;;
72771;SDS011;60894;42.544;1.516;2024-02-26T12:36:39;2.30;;;0.70;;
72771;SDS011;60894;42.544;1.516;2024-02-26T12:39:06;3.50;;;0.60;;
72771;SDS011;60894;42.544;1.516;2024-02-26T12:41:34;2.08;;;1.15;;
72771;SDS011;60894;42.544;1.516;2024-02-26T12:44:01;1.47;;;0.40;;
72771;SDS011;60894;42.544;1.516;2024-02-26T12:46:29;1.05;;;0.40;;
72771;SDS011;60894;42.544;1.516;2024-02-26T12:48:56;1.40;;;0.40;;
72771;SDS011;60894;42.544;1.516;2024-02-26T12:51:25;1.13;;;0.50;;
72771;SDS011;60894;42.544;1.516;2024-02-26T12:53:54;1.15;;;0.47;;
72771;SDS011;60894;42.544;1.516;2024-02-26T12:56:22;0.90;;;0.60;;
72771;SDS011;60894;42.544;1.516;2024-02-26T12:58:50;0.52;;;0.40;;
72771;SDS011;60894;42.544;1.516;2024-02-26T13:01:19;3.83;;;1.10;;
72771;SDS011;60894;42.544;1.516;2024-02-26T13:03:48;1.35;;;0.52;;
72771;SDS011;60894;42.544;1.516;2024-02-26T13:06:16;3.53;;;0.50;;
72771;SDS011;60894;42.544;1.516;2024-02-26T13:08:45;1.63;;;0.50;;
72771;SDS011;60894;42.544;1.516;2024-02-26T13:11:12;1.20;;;0.40;;
72771;SDS011;60894;42.544;1.516;2024-02-26T13:13:39;2.15;;;0.52;;
72771;SDS011;60894;42.544;1.516;2024-02-26T13:16:07;5.47;;;0.73;;
72771;SDS011;60894;42.544;1.516;2024-02-26T13:18:35;3.35;;;0.80;;
72771;SDS011;60894;42.544;1.516;2024-02-26T13:21:07;1.33;;;0.50;;
72771;SDS011;60894;42.544;1.516;2024-02-26T13:23:35;3.33;;;0.75;;
72771;SDS011;60894;42.544;1.516;2024-02-26T13:26:04;2.45;;;0.50;;
72771;SDS011;60894;42.544;1.516;2024-02-26T13:28:31;1.73;;;0.60;;
72771;SDS011;60894;42.544;1.516;2024-02-26T13:30:58;3.15;;;0.70;;
72771;SDS011;60894;42.544;1.516;2024-02-26T13:33:28;2.87;;;0.70;;
72771;SDS011;60894;42.544;1.516;2024-02-26T13:35:56;1.80;;;0.45;;
72771;SDS011;60894;42.544;1.516;2024-02-26T13:38:24;2.83;;;0.65;;
72771;SDS011;60894;42.544;1.516;2024-02-26T13:40:51;1.75;;;0.70;;
72771;SDS011;60894;42.544;1.516;2024-02-26T13:43:20;1.10;;;0.60;;
72771;SDS011;60894;42.544;1.516;2024-02-26T13:45:47;1.30;;;0.50;;
72771;SDS011;60894;42.544;1.516;2024-02-26T13:48:16;4.11;;;0.80;;
72771;SDS011;60894;42.544;1.516;2024-02-26T13:50:43;1.30;;;0.60;;
72771;SDS011;60894;42.544;1.516;2024-02-26T13:53:11;2.67;;;0.80;;
72771;SDS011;60894;42.544;1.516;2024-02-26T13:55:39;5.00;;;0.80;;
72771;SDS011;60894;42.544;1.516;2024-02-26T13:58:07;2.35;;;0.70;;
72771;SDS011;60894;42.544;1.516;2024-02-26T14:00:38;1.95;;;0.70;;
72771;SDS011;60894;42.544;1.516;2024-02-26T14:03:06;5.25;;;0.93;;
72771;SDS011;60894;42.544;1.516;2024-02-26T14:05:33;1.20;;;0.50;;
72771;SDS011;60894;42.544;1.516;2024-02-26T14:08:00;2.42;;;0.70;;
72771;SDS011;60894;42.544;1.516;2024-02-26T14:10:27;3.05;;;0.70;;
72771;SDS011;60894;42.544;1.516;2024-02-26T14:12:55;2.30;;;0.70;;
72771;SDS011;60894;42.544;1.516;2024-02-26T14:15:22;4.13;;;1.25;;
72771;SDS011;60894;42.544;1.516;2024-02-26T14:17:51;1.30;;;0.60;;
72771;SDS011;60894;42.544;1.516;2024-02-26T14:20:21;5.65;;;0.80;;
72771;SDS011;60894;42.544;1.516;2024-02-26T14:22:49;2.17;;;0.80;;
72771;SDS011;60894;42.544;1.516;2024-02-26T14:25:17;1.30;;;0.70;;
72771;SDS011;60894;42.544;1.516;2024-02-26T14:27:44;2.03;;;0.80;;
72771;SDS011;60894;42.544;1.516;2024-02-26T14:30:12;2.47;;;0.60;;
72771;SDS011;60894;42.544;1.516;2024-02-26T14:32:39;3.55;;;0.75;;
72771;SDS011;60894;42.544;1.516;2024-02-26T14:35:08;3.85;;;0.88;;
72771;SDS011;60894;42.544;1.516;2024-02-26T14:37:35;3.45;;;0.70;;
72771;SDS011;60894;42.544;1.516;2024-02-26T14:40:02;3.35;;;0.90;;
72771;SDS011;60894;42.544;1.516;2024-02-26T14:42:30;2.80;;;1.00;;
72771;SDS011;60894;42.544;1.516;2024-02-26T14:44:57;2.75;;;1.10;;
72771;SDS011;60894;42.544;1.516;2024-02-26T14:47:25;4.18;;;0.73;;
72771;SDS011;60894;42.544;1.516;2024-02-26T14:49:52;3.35;;;0.90;;